TrOMS Hera — 2IFN6 — position and weather

sailwx.info

Track history (hours):
 
Tides and Currents Weather Stations Pressure Air Temp Water Temp Dewpoint Dewpoint Depression Visibility Wind Speed Wind Dir Waves Ship Positions

TrOMS Hera

Last reported at 2018-Feb-09 05:30 UTC. Time now 2018-Jun-24 15:04 UTC.
Position N 07°41' W 014°35'.
Warning: this ship's position is months out of date.

Length 82 m; draft 5.3 m.

Type: Other ship. MMSI: 235109319.

Date/timePositionNaut miles runAvg speedWind from/ knotsBaromVisibWave heightAir tempDewpointWater temp
2018-Feb-09 05:30N 07°41' W 014°35'3510.0
2018-Feb-09 02:00N 07°60' W 015°05'510.2
2018-Feb-09 01:30N 08°02' W 015°09'1010.1
2018-Feb-09 00:30N 08°08' W 015°18'5510.0
2018-Feb-08 19:00N 08°38' W 016°05'5 9.9
2018-Feb-08 18:30N 08°41' W 016°09'510.0
2018-Feb-08 18:00N 08°43' W 016°13'  
2018-Feb-03 13:38N 28°10' W 016°11'110.0
2018-Feb-03 13:29N 28°11' W 016°10'5 9.8
2018-Feb-03 13:00N 28°15' W 016°07'5 9.9
2018-Feb-03 12:30N 28°19' W 016°03'510.3
2018-Feb-03 12:00N 28°23' W 015°59'510.5
2018-Feb-03 11:30N 28°27' W 015°56'510.4
2018-Feb-03 11:00N 28°30' W 015°52'610.3
2018-Feb-03 10:27N 28°35' W 015°47'510.1
2018-Feb-03 10:00N 28°39' W 015°45'510.2
2018-Feb-03 09:30N 28°44' W 015°43'510.3
2018-Feb-03 09:00N 28°49' W 015°42'610.5
2018-Feb-03 08:28N 28°54' W 015°41'  
Track history (hours):
 
Tides and Currents Weather Stations Pressure Air Temp Water Temp Dewpoint Dewpoint Depression Visibility Wind Speed Wind Dir Waves Ship Positions

TrOMS Hera

Last reported at 2018-Feb-09 05:30 UTC. Time now 2018-Jun-24 15:04 UTC.
Position N 07°41' W 014°35'.
Warning: this ship's position is months out of date.

Length 82 m; draft 5.3 m.

Type: Other ship. MMSI: 235109319.

Date/timePositionNaut miles runAvg speedWind from/ knotsBaromVisibWave heightAir tempDewpointWater temp
2018-Feb-09 05:30N 07°41' W 014°35'3510.0
2018-Feb-09 02:00N 07°60' W 015°05'510.2
2018-Feb-09 01:30N 08°02' W 015°09'1010.1
2018-Feb-09 00:30N 08°08' W 015°18'5510.0
2018-Feb-08 19:00N 08°38' W 016°05'5 9.9
2018-Feb-08 18:30N 08°41' W 016°09'510.0
2018-Feb-08 18:00N 08°43' W 016°13'  
2018-Feb-03 13:38N 28°10' W 016°11'110.0
2018-Feb-03 13:29N 28°11' W 016°10'5 9.8
2018-Feb-03 13:00N 28°15' W 016°07'5 9.9
2018-Feb-03 12:30N 28°19' W 016°03'510.3
2018-Feb-03 12:00N 28°23' W 015°59'510.5
2018-Feb-03 11:30N 28°27' W 015°56'510.4
2018-Feb-03 11:00N 28°30' W 015°52'610.3
2018-Feb-03 10:27N 28°35' W 015°47'510.1
2018-Feb-03 10:00N 28°39' W 015°45'510.2
2018-Feb-03 09:30N 28°44' W 015°43'510.3
2018-Feb-03 09:00N 28°49' W 015°42'610.5
2018-Feb-03 08:28N 28°54' W 015°41'  

Dump ship's entire track history